Time;durP1;ratioP1;P1;durP2;ratioP2;P2;SDS_P1;SDS_P2;PMS_P1;PMS_P2;Temp;Humidity;BMP_temperature;BMP_pressure;BME280_temperature;BME280_humidity;BME280_pressure;Samples;Min_cycle;Max_cycle;Signal;HPM_P1;HPM_P2
2022/05/14 00:00:48;;;;;;;7.93;2.78;;;11.70;99.90;;;;;;5054271;28;20047;-50
2022/05/14 00:03:15;;;;;;;7.88;2.90;;;11.70;99.90;;;;;;5050959;28;20120;-47
2022/05/14 00:05:42;;;;;;;6.38;2.95;;;11.70;99.90;;;;;;5050410;28;20044;-50
2022/05/14 00:08:08;;;;;;;7.03;2.47;;;11.70;99.90;;;;;;5056520;28;20048;-47
2022/05/14 00:13:03;;;;;;;7.68;2.70;;;11.70;99.90;;;;;;5052760;28;20033;-47
2022/05/14 00:13:19;;;;;;;8.73;2.28;;;11.70;99.90;;;;;;5052841;28;20115;-49
2022/05/14 00:15:45;;;;;;;10.52;2.95;;;11.70;99.90;;;;;;5053405;28;20041;-47
2022/05/14 00:18:11;;;;;;;5.93;2.70;;;11.70;99.90;;;;;;5050239;28;20037;-47
2022/05/14 00:20:38;;;;;;;8.55;2.45;;;11.70;99.90;;;;;;5054039;28;20036;-46
2022/05/14 00:23:05;;;;;;;7.47;2.90;;;11.70;99.90;;;;;;5050844;28;20046;-50
2022/05/14 00:25:31;;;;;;;10.10;2.70;;;11.70;99.90;;;;;;5052415;28;20040;-47
2022/05/14 00:27:57;;;;;;;7.43;2.15;;;11.70;99.90;;;;;;5051413;28;20091;-47
2022/05/14 00:30:26;;;;;;;7.00;2.28;;;11.70;99.90;;;;;;5055355;28;20049;-47
2022/05/14 00:32:52;;;;;;;11.32;2.65;;;11.70;99.90;;;;;;5051497;28;20123;-46
2022/05/14 00:35:18;;;;;;;9.43;2.95;;;11.80;99.90;;;;;;5050400;28;20127;-48
2022/05/14 00:37:44;;;;;;;9.35;2.63;;;11.80;99.90;;;;;;5054486;28;20032;-47
2022/05/14 00:40:15;;;;;;;7.30;2.33;;;11.80;99.90;;;;;;5054616;28;20094;-47
2022/05/14 00:42:41;;;;;;;6.15;2.33;;;11.80;99.90;;;;;;5052853;28;20032;-46
2022/05/14 00:45:07;;;;;;;4.70;2.30;;;11.80;99.90;;;;;;5053952;28;20102;-45
2022/05/14 00:47:37;;;;;;;7.35;2.50;;;11.80;99.90;;;;;;5050993;28;20044;-45
2022/05/14 00:50:17;;;;;;;7.88;2.65;;;11.70;99.90;;;;;;5051632;28;20037;-46
2022/05/14 00:52:44;;;;;;;7.80;2.35;;;11.70;99.90;;;;;;5048414;28;20535;-46
2022/05/14 00:55:10;;;;;;;6.35;2.65;;;11.70;99.90;;;;;;5055929;28;20045;-47
2022/05/14 00:57:40;;;;;;;7.45;2.88;;;11.60;99.90;;;;;;5053963;28;20459;-46
2022/05/14 01:00:14;;;;;;;5.97;2.60;;;11.50;99.90;;;;;;5052946;28;20056;-48
2022/05/14 01:02:40;;;;;;;7.93;2.30;;;11.50;99.90;;;;;;5055408;28;20032;-48
2022/05/14 01:05:07;;;;;;;7.82;2.78;;;11.50;99.90;;;;;;5052499;28;20043;-47
2022/05/14 01:07:33;;;;;;;7.10;2.57;;;11.50;99.90;;;;;;5054503;28;20048;-47
2022/05/14 01:10:03;;;;;;;4.68;2.30;;;11.50;99.90;;;;;;5032033;28;20319;-48
2022/05/14 01:12:30;;;;;;;8.32;2.38;;;11.60;99.90;;;;;;5052201;28;20567;-48
2022/05/14 01:15:07;;;;;;;10.03;2.70;;;11.60;99.90;;;;;;5053938;28;21349;-46
2022/05/14 01:17:33;;;;;;;7.55;3.03;;;11.60;99.90;;;;;;5054741;28;20395;-46
2022/05/14 01:19:58;;;;;;;11.27;3.63;;;11.60;99.90;;;;;;5053107;28;21265;-46
2022/05/14 01:22:36;;;;;;;6.47;2.63;;;11.60;99.90;;;;;;5056215;28;20454;-45
2022/05/14 01:27:58;;;;;;;10.75;3.30;;;11.70;99.90;;;;;;5059619;28;19936;-49
2022/05/14 01:30:23;;;;;;;9.73;2.47;;;11.70;99.90;;;;;;5055101;28;20052;-48
2022/05/14 01:33:04;;;;;;;6.68;2.63;;;11.70;99.90;;;;;;5055874;28;20052;-46
2022/05/14 01:35:32;;;;;;;8.50;2.67;;;11.70;99.90;;;;;;5057165;28;20063;-51
2022/05/14 01:37:57;;;;;;;10.15;3.42;;;11.70;99.90;;;;;;5061281;28;20106;-50
2022/05/14 01:40:23;;;;;;;13.23;3.38;;;11.70;99.90;;;;;;5054557;28;20037;-46
2022/05/14 01:42:48;;;;;;;10.52;3.65;;;11.70;99.90;;;;;;5059801;28;20041;-47
2022/05/14 01:45:14;;;;;;;9.40;2.92;;;11.70;99.90;;;;;;5055145;28;20033;-45
2022/05/14 01:47:40;;;;;;;7.28;2.80;;;11.70;99.90;;;;;;5057525;28;20044;-46
2022/05/14 01:50:06;;;;;;;7.13;3.08;;;11.70;99.90;;;;;;5077694;22;20048;-85
2022/05/14 01:52:31;;;;;;;9.55;3.25;;;11.70;99.90;;;;;;5039696;28;20251;-85
2022/05/14 01:54:57;;;;;;;8.32;3.47;;;11.70;99.90;;;;;;5038551;28;20390;-85
2022/05/14 01:57:23;;;;;;;9.40;3.40;;;11.70;99.90;;;;;;5039520;28;20054;-85
2022/05/14 01:59:48;;;;;;;9.60;3.00;;;11.70;99.90;;;;;;5036955;28;20043;-85
2022/05/14 02:02:14;;;;;;;11.15;3.65;;;11.70;99.90;;;;;;5039025;28;20482;-86
2022/05/14 02:04:39;;;;;;;9.13;3.70;;;11.70;99.90;;;;;;5036743;28;20042;-86
2022/05/14 02:07:05;;;;;;;8.73;2.90;;;11.80;99.90;;;;;;5035371;28;20099;-85
2022/05/14 02:09:31;;;;;;;10.85;3.50;;;11.80;99.90;;;;;;5035240;28;20049;-85
2022/05/14 02:11:56;;;;;;;12.73;3.60;;;11.70;99.90;;;;;;5039984;28;20712;-85
2022/05/14 02:14:22;;;;;;;12.57;3.25;;;11.70;99.90;;;;;;5039685;28;20053;-85
2022/05/14 02:16:47;;;;;;;7.88;3.20;;;11.70;99.90;;;;;;5035440;28;20108;-85
2022/05/14 02:19:13;;;;;;;8.45;3.38;;;11.70;99.90;;;;;;5034943;28;20045;-86
2022/05/14 02:21:39;;;;;;;8.95;2.58;;;11.70;99.90;;;;;;5035076;28;20044;-85
2022/05/14 02:24:05;;;;;;;11.25;3.47;;;11.70;99.90;;;;;;5022523;28;20045;-85
2022/05/14 02:26:30;;;;;;;9.02;2.90;;;11.70;99.90;;;;;;5022436;28;20133;-85
2022/05/14 02:28:57;;;;;;;9.95;2.92;;;11.70;99.90;;;;;;5036419;28;20493;-86
2022/05/14 02:31:22;;;;;;;11.13;3.50;;;11.60;99.90;;;;;;5020766;28;20208;-85
2022/05/14 02:33:48;;;;;;;10.27;3.35;;;11.50;99.90;;;;;;5017830;28;20045;-83
2022/05/14 02:36:13;;;;;;;7.07;3.35;;;11.50;99.90;;;;;;5038467;28;20045;-84
2022/05/14 02:38:40;;;;;;;9.20;3.35;;;11.40;99.90;;;;;;5038658;28;20098;-83
2022/05/14 02:41:07;;;;;;;9.32;3.35;;;11.40;99.90;;;;;;5024450;28;20041;-84
2022/05/14 02:43:33;;;;;;;9.13;3.08;;;11.30;99.90;;;;;;5038461;28;20504;-83
2022/05/14 02:45:59;;;;;;;11.35;3.63;;;11.30;99.90;;;;;;5037272;28;20068;-84
2022/05/14 02:48:25;;;;;;;12.13;3.38;;;11.20;99.90;;;;;;5031888;28;20152;-83
2022/05/14 02:50:51;;;;;;;13.95;3.75;;;11.20;99.90;;;;;;5037826;28;20080;-84
2022/05/14 02:53:18;;;;;;;9.85;3.95;;;11.10;99.90;;;;;;5039092;28;20080;-84
2022/05/14 02:55:44;;;;;;;8.00;3.38;;;11.10;99.90;;;;;;5018608;28;20489;-83
2022/05/14 02:58:10;;;;;;;10.43;3.35;;;11.10;99.90;;;;;;5017620;28;20210;-83
2022/05/14 03:00:35;;;;;;;11.27;3.60;;;11.10;99.90;;;;;;5037278;28;20033;-84
2022/05/14 03:03:01;;;;;;;8.70;3.60;;;11.00;99.90;;;;;;5033373;28;20478;-84
2022/05/14 03:05:27;;;;;;;9.57;3.35;;;11.00;99.90;;;;;;5036931;28;20037;-84
2022/05/14 03:07:53;;;;;;;9.63;3.30;;;10.90;99.90;;;;;;5017079;28;20052;-83
2022/05/14 03:10:19;;;;;;;8.63;3.70;;;10.90;99.90;;;;;;5035705;28;20045;-84
2022/05/14 03:12:44;;;;;;;8.57;3.75;;;10.80;99.90;;;;;;5034357;28;20056;-84
2022/05/14 03:15:12;;;;;;;13.40;3.92;;;10.80;99.90;;;;;;5036288;28;20390;-84
2022/05/14 03:17:37;;;;;;;9.02;4.22;;;10.70;99.90;;;;;;5037625;28;20228;-84
2022/05/14 03:20:08;;;;;;;11.70;3.72;;;10.60;99.90;;;;;;5013652;28;20618;-83
2022/05/14 03:22:39;;;;;;;9.98;4.05;;;10.60;99.90;;;;;;5019286;28;20131;-83
2022/05/14 03:25:07;;;;;;;8.15;3.72;;;10.50;99.90;;;;;;5011080;28;20041;-84
2022/05/14 03:27:33;;;;;;;13.75;3.90;;;10.50;99.90;;;;;;5035990;28;20049;-84
2022/05/14 03:29:59;;;;;;;13.52;4.43;;;10.50;99.90;;;;;;5034608;28;20033;-84
2022/05/14 03:32:26;;;;;;;9.65;4.25;;;10.50;99.90;;;;;;5035275;28;20045;-83
2022/05/14 03:34:54;;;;;;;11.25;4.50;;;10.40;99.90;;;;;;5015241;28;20048;-85
2022/05/14 03:37:21;;;;;;;8.88;4.20;;;10.40;99.90;;;;;;5034482;28;20448;-84
2022/05/14 03:39:47;;;;;;;10.52;4.43;;;10.30;99.90;;;;;;5033875;28;20033;-80
2022/05/14 03:42:12;;;;;;;11.45;4.28;;;10.30;99.90;;;;;;5039245;28;20361;-85
2022/05/14 03:44:38;;;;;;;9.98;4.63;;;10.20;99.90;;;;;;5045792;28;20053;-85
2022/05/14 03:47:03;;;;;;;12.50;4.95;;;10.20;99.90;;;;;;5034368;28;20579;-85
2022/05/14 03:49:30;;;;;;;11.13;4.25;;;10.10;99.90;;;;;;5037462;28;20059;-83
2022/05/14 03:51:56;;;;;;;10.23;4.35;;;10.10;99.90;;;;;;5037414;28;20057;-83
2022/05/14 03:54:21;;;;;;;10.45;4.28;;;10.10;99.90;;;;;;5036465;28;20045;-82
2022/05/14 03:56:47;;;;;;;13.02;5.35;;;10.10;99.90;;;;;;5025187;28;20076;-82
2022/05/14 03:59:13;;;;;;;10.43;4.57;;;10.10;99.90;;;;;;5037871;28;20045;-85
2022/05/14 04:01:39;;;;;;;9.95;4.28;;;10.10;99.90;;;;;;5034942;28;20047;-85
2022/05/14 04:04:05;;;;;;;10.75;4.47;;;10.10;99.90;;;;;;5033859;28;20109;-83
2022/05/14 04:06:31;;;;;;;13.18;4.70;;;10.10;99.90;;;;;;5038840;28;20044;-83
2022/05/14 04:08:56;;;;;;;10.70;4.10;;;10.10;99.90;;;;;;5036359;28;20098;-83
2022/05/14 04:11:22;;;;;;;14.00;4.57;;;10.10;99.90;;;;;;5032926;28;20041;-84
2022/05/14 04:13:48;;;;;;;11.05;5.22;;;10.10;99.90;;;;;;5034290;28;20041;-83
2022/05/14 04:16:14;;;;;;;11.82;4.60;;;10.20;99.90;;;;;;5035165;28;20056;-83
2022/05/14 04:18:39;;;;;;;9.60;4.75;;;10.20;99.90;;;;;;5034488;28;20068;-84
2022/05/14 04:21:05;;;;;;;14.18;5.18;;;10.30;99.90;;;;;;5037228;28;20045;-83
2022/05/14 04:23:31;;;;;;;8.93;4.28;;;10.40;99.90;;;;;;5036286;28;20048;-83
2022/05/14 04:25:58;;;;;;;13.63;5.07;;;10.40;99.90;;;;;;5034073;28;20083;-84
2022/05/14 04:28:28;;;;;;;14.68;4.95;;;10.50;99.90;;;;;;5031148;28;20129;-83
2022/05/14 04:30:54;;;;;;;9.73;4.22;;;10.50;99.90;;;;;;5032089;28;20091;-85
2022/05/14 04:33:20;;;;;;;12.95;4.97;;;10.60;99.90;;;;;;5035119;28;21335;-86
2022/05/14 04:35:46;;;;;;;8.52;5.03;;;10.70;99.90;;;;;;5035570;28;20516;-85
2022/05/14 04:38:13;;;;;;;14.25;5.07;;;10.80;99.90;;;;;;5033964;28;20040;-86
2022/05/14 04:40:39;;;;;;;14.13;5.40;;;10.80;99.90;;;;;;5033517;28;20041;-86
2022/05/14 04:43:06;;;;;;;14.48;4.97;;;11.20;99.90;;;;;;5033950;28;20107;-86
2022/05/14 04:45:32;;;;;;;16.38;5.60;;;11.80;99.90;;;;;;5035363;28;20036;-86
2022/05/14 04:47:58;;;;;;;12.40;4.93;;;12.30;99.90;;;;;;5035547;28;20037;-86
2022/05/14 04:50:23;;;;;;;13.20;4.65;;;12.70;99.90;;;;;;5035909;28;20053;-87
2022/05/14 04:52:49;;;;;;;10.10;4.63;;;13.20;99.90;;;;;;5037723;28;20115;-86
2022/05/14 04:55:15;;;;;;;16.17;5.32;;;13.70;99.90;;;;;;5038995;28;20034;-86
2022/05/14 04:57:43;;;;;;;15.18;5.28;;;14.20;99.90;;;;;;5037599;28;20045;-87
2022/05/14 05:00:11;;;;;;;13.43;4.68;;;14.60;99.90;;;;;;5037992;28;20172;-85
2022/05/14 05:05:21;;;;;;;14.40;4.82;;;15.60;99.90;;;;;;5041034;28;20053;-86
2022/05/14 05:07:47;;;;;;;10.95;4.95;;;16.00;99.90;;;;;;5039314;28;20086;-87
2022/05/14 05:10:13;;;;;;;11.27;4.45;;;16.30;99.90;;;;;;5038934;28;20033;-87
2022/05/14 05:12:39;;;;;;;14.50;5.15;;;16.60;99.90;;;;;;5037148;28;20059;-87
2022/05/14 05:15:05;;;;;;;9.95;4.50;;;16.80;99.90;;;;;;5040423;28;20041;-86
2022/05/14 05:17:31;;;;;;;13.43;5.13;;;17.10;99.90;;;;;;5037770;28;20401;-85
2022/05/14 05:19:56;;;;;;;19.13;5.05;;;17.40;99.90;;;;;;5037914;28;20040;-85
2022/05/14 05:22:22;;;;;;;12.85;4.95;;;17.60;99.90;;;;;;5039492;28;20158;-85
2022/05/14 05:24:47;;;;;;;13.13;5.38;;;18.00;99.90;;;;;;5037345;28;20202;-84
2022/05/14 05:27:13;;;;;;;14.77;4.68;;;18.20;99.90;;;;;;5038344;28;20046;-83
2022/05/14 05:29:39;;;;;;;11.90;4.90;;;18.50;99.90;;;;;;5020163;28;20543;-84
2022/05/14 05:32:05;;;;;;;9.52;4.97;;;18.80;99.90;;;;;;5045415;28;20477;-84
2022/05/14 05:34:30;;;;;;;12.57;4.28;;;19.20;99.90;;;;;;5021322;28;20094;-84
2022/05/14 05:36:56;;;;;;;10.13;4.68;;;19.40;99.90;;;;;;5019749;28;20053;-84
2022/05/14 05:39:21;;;;;;;11.40;4.55;;;19.70;99.90;;;;;;5036413;28;20048;-84
2022/05/14 05:41:47;;;;;;;12.25;4.55;;;19.80;99.90;;;;;;5039118;28;20383;-84
2022/05/14 05:44:13;;;;;;;10.77;5.22;;;20.00;99.90;;;;;;5040181;28;20131;-84
2022/05/14 05:46:39;;;;;;;14.25;5.22;;;20.10;99.90;;;;;;5022205;28;20444;-85
2022/05/14 05:49:07;;;;;;;12.20;5.07;;;20.40;99.90;;;;;;5008479;28;20152;-84
2022/05/14 05:51:33;;;;;;;15.32;4.95;;;20.50;99.90;;;;;;5038527;28;20053;-84
2022/05/14 05:56:46;;;;;;;13.60;5.32;;;21.20;99.90;;;;;;5040234;28;20048;-84
2022/05/14 05:59:12;;;;;;;14.63;5.07;;;21.50;99.90;;;;;;5036973;28;20052;-84
2022/05/14 06:01:38;;;;;;;14.05;5.07;;;21.70;99.90;;;;;;5034228;28;20045;-84
2022/05/14 06:04:03;;;;;;;9.52;5.10;;;21.90;99.90;;;;;;5039916;28;20111;-83
2022/05/14 06:06:29;;;;;;;14.98;5.15;;;22.10;99.90;;;;;;5037337;28;20132;-84
2022/05/14 06:08:55;;;;;;;13.77;5.43;;;22.40;98.50;;;;;;5019026;28;20129;-84
2022/05/14 06:11:21;;;;;;;13.80;5.70;;;22.50;98.90;;;;;;5039703;28;20472;-84
2022/05/14 06:13:46;;;;;;;13.23;5.85;;;22.60;97.50;;;;;;5034091;28;20080;-84
2022/05/14 06:16:14;;;;;;;15.25;5.82;;;22.70;98.20;;;;;;5021564;28;20087;-83
2022/05/14 06:18:42;;;;;;;16.38;5.72;;;23.10;96.90;;;;;;5054569;28;20044;-83
2022/05/14 06:21:08;;;;;;;14.55;5.63;;;23.40;96.40;;;;;;5022763;28;20045;-85
2022/05/14 06:23:34;;;;;;;14.88;5.22;;;23.70;95.60;;;;;;5019843;28;20045;-85
2022/05/14 06:26:00;;;;;;;11.48;5.35;;;23.50;94.90;;;;;;5019433;28;20064;-85
2022/05/14 06:28:26;;;;;;;16.08;6.10;;;22.90;93.90;;;;;;5035695;28;20076;-83
2022/05/14 06:30:52;;;;;;;14.95;5.43;;;22.90;93.50;;;;;;5021154;28;20037;-85
2022/05/14 06:33:18;;;;;;;17.92;6.15;;;23.00;95.30;;;;;;5031061;28;20041;-85
2022/05/14 06:35:45;;;;;;;13.60;5.80;;;23.20;94.50;;;;;;5036225;28;20033;-88
2022/05/14 06:38:12;;;;;;;17.45;5.95;;;23.10;94.40;;;;;;5019560;28;20398;-88
2022/05/14 06:40:38;;;;;;;15.07;6.50;;;23.10;94.10;;;;;;5036915;28;20116;-87
2022/05/14 06:43:04;;;;;;;20.27;6.28;;;23.20;94.10;;;;;;5021344;28;20044;-89
2022/05/14 06:45:30;;;;;;;14.05;5.80;;;23.40;94.30;;;;;;5037172;28;20394;-88
2022/05/14 06:47:57;;;;;;;17.48;6.50;;;23.70;94.10;;;;;;5020931;28;20064;-87
2022/05/14 06:50:25;;;;;;;19.97;6.40;;;23.80;93.30;;;;;;5036178;28;20120;-85
2022/05/14 06:52:56;;;;;;;15.52;6.57;;;23.90;91.90;;;;;;5020812;28;20048;-84
2022/05/14 06:55:25;;;;;;;16.60;6.50;;;23.90;92.60;;;;;;5034835;28;20055;-86
2022/05/14 06:57:52;;;;;;;16.13;6.72;;;24.10;92.20;;;;;;5051246;28;20074;-87
2022/05/14 07:00:18;;;;;;;17.50;5.88;;;24.20;91.30;;;;;;5037503;28;20044;-86
2022/05/14 07:08:33;;;;;;;17.30;5.93;;;24.20;90.30;;;;;;5039333;28;20037;-87
2022/05/14 07:11:02;;;;;;;19.75;6.75;;;23.70;90.20;;;;;;5040808;28;20123;-84
2022/05/14 07:13:27;;;;;;;14.63;5.70;;;23.80;90.20;;;;;;5038945;28;20058;-84
2022/05/14 07:15:53;;;;;;;18.60;6.40;;;24.00;90.90;;;;;;5037668;28;20374;-84
2022/05/14 07:18:19;;;;;;;17.95;6.80;;;24.00;90.30;;;;;;5037679;28;20045;-84
2022/05/14 07:20:44;;;;;;;16.58;6.30;;;24.10;90.00;;;;;;5036483;28;20041;-84
2022/05/14 07:23:10;;;;;;;16.52;6.05;;;24.20;88.30;;;;;;5038524;28;20100;-86
2022/05/14 07:25:41;;;;;;;15.93;6.18;;;24.20;88.80;;;;;;5043775;28;20029;-96
2022/05/14 07:28:08;;;;;;;15.07;5.68;;;24.10;89.00;;;;;;5037182;28;20067;-94
2022/05/14 07:30:34;;;;;;;14.38;5.82;;;23.80;87.50;;;;;;5032782;28;20049;-92
2022/05/14 07:33:00;;;;;;;15.40;5.80;;;22.90;85.20;;;;;;5030012;28;20042;-88
2022/05/14 07:35:26;;;;;;;15.70;5.50;;;;;;;;;;5046215;28;20033;-89
2022/05/14 07:37:54;;;;;;;16.25;5.82;;;21.90;90.30;;;;;;5028996;28;20045;-90
2022/05/14 07:40:21;;;;;;;19.40;5.70;;;;;;;;;;5033826;28;20037;-89
2022/05/14 07:42:55;;;;;;;15.15;6.10;;;20.90;90.90;;;;;;5052254;28;20111;-85
2022/05/14 07:45:32;;;;;;;16.80;5.95;;;20.00;90.60;;;;;;5038349;28;20108;-92
2022/05/14 07:48:00;;;;;;;16.87;5.40;;;19.80;91.60;;;;;;5025219;28;20052;-88
2022/05/14 07:50:25;;;;;;;16.23;5.38;;;19.70;94.00;;;;;;5037031;28;20057;-90
2022/05/14 07:52:52;;;;;;;16.60;5.53;;;19.80;95.20;;;;;;5039702;28;20056;-85
2022/05/14 07:55:18;;;;;;;12.53;4.77;;;19.80;95.30;;;;;;5031037;28;20080;-84
2022/05/14 07:57:43;;;;;;;13.23;4.03;;;19.80;92.50;;;;;;5032654;28;20081;-85
2022/05/14 08:00:10;;;;;;;15.85;4.68;;;19.80;92.40;;;;;;5028864;28;20050;-85
2022/05/14 08:02:35;;;;;;;19.13;4.78;;;19.80;92.00;;;;;;5012305;28;20084;-85
2022/05/14 08:05:03;;;;;;;15.23;5.05;;;19.90;92.40;;;;;;5033884;28;20628;-85
2022/05/14 08:07:29;;;;;;;14.35;4.63;;;20.00;93.20;;;;;;5032114;28;20136;-85
2022/05/14 08:09:55;;;;;;;13.93;5.05;;;20.20;93.20;;;;;;5027885;28;20083;-84
2022/05/14 08:12:21;;;;;;;15.20;4.53;;;20.30;93.20;;;;;;5029620;28;20077;-84
2022/05/14 08:14:47;;;;;;;14.77;4.82;;;20.10;92.70;;;;;;5028644;28;20059;-84
2022/05/14 08:17:12;;;;;;;17.38;5.40;;;19.60;93.00;;;;;;5028596;28;20456;-86
2022/05/14 08:19:38;;;;;;;18.75;6.47;;;19.90;93.90;;;;;;5012020;28;20044;-84
2022/05/14 08:24:50;;;;;;;20.75;5.82;;;20.10;94.50;;;;;;5040638;28;20050;-85
2022/05/14 08:27:16;;;;;;;17.70;4.80;;;20.30;94.30;;;;;;5033759;28;20037;-84
2022/05/14 08:29:45;;;;;;;18.63;5.55;;;20.40;93.60;;;;;;5033147;28;20479;-84
2022/05/14 08:32:11;;;;;;;22.95;5.28;;;20.40;93.90;;;;;;5032341;28;20052;-84
2022/05/14 08:34:36;;;;;;;15.27;4.93;;;20.40;93.20;;;;;;5031191;28;20124;-84
2022/05/14 08:37:02;;;;;;;16.38;4.75;;;20.60;93.50;;;;;;5049942;28;20076;-85
2022/05/14 08:39:28;;;;;;;14.05;4.35;;;20.60;92.20;;;;;;5051013;28;20131;-85
2022/05/14 08:41:55;;;;;;;18.35;4.60;;;20.60;91.50;;;;;;5052276;28;20098;-85
2022/05/14 08:44:33;;;;;;;15.23;4.47;;;20.90;92.00;;;;;;5036842;28;20375;-85
2022/05/14 08:47:06;;;;;;;15.32;4.82;;;21.10;92.20;;;;;;5033024;28;20045;-85
2022/05/14 08:49:41;;;;;;;12.55;4.68;;;21.30;91.90;;;;;;5031360;28;20490;-84
2022/05/14 08:52:15;;;;;;;14.93;4.13;;;21.60;91.80;;;;;;5033073;28;20053;-84
2022/05/14 08:54:41;;;;;;;17.58;4.78;;;21.70;90.80;;;;;;5032430;28;20136;-84
2022/05/14 08:57:13;;;;;;;14.15;4.25;;;21.60;91.10;;;;;;5031755;28;20073;-84
2022/05/14 09:00:00;;;;;;;16.20;4.60;;;21.80;88.80;;;;;;5048766;28;20551;-84
2022/05/14 09:02:41;;;;;;;16.77;4.68;;;21.30;86.50;;;;;;5050839;28;20448;-85
2022/05/14 09:05:30;;;;;;;24.23;5.95;;;21.20;89.40;;;;;;5049750;28;20226;-85
2022/05/14 09:07:56;;;;;;;15.60;4.57;;;21.20;87.00;;;;;;5051243;28;20041;-84
2022/05/14 09:10:32;;;;;;;20.60;5.07;;;21.70;89.40;;;;;;5052103;28;20087;-84
2022/05/14 09:13:17;;;;;;;11.18;4.13;;;21.30;88.60;;;;;;5047725;28;20051;-84
2022/05/14 09:15:55;;;;;;;16.25;5.18;;;21.60;89.20;;;;;;5033178;28;20064;-85
2022/05/14 09:18:22;;;;;;;18.42;4.75;;;21.80;86.90;;;;;;5032313;28;20068;-84
2022/05/14 09:20:52;;;;;;;16.80;5.10;;;21.80;85.50;;;;;;5040398;28;20214;-84
2022/05/14 09:23:39;;;;;;;14.55;4.75;;;21.80;87.00;;;;;;5032217;28;20073;-85
2022/05/14 09:26:32;;;;;;;13.35;4.03;;;22.00;85.40;;;;;;5031071;28;20135;-84
2022/05/14 09:29:33;;;;;;;16.90;4.55;;;21.60;83.30;;;;;;5039169;28;20056;-85
2022/05/14 09:32:02;;;;;;;14.13;4.60;;;21.40;88.30;;;;;;5033957;28;20052;-84
2022/05/14 09:34:30;;;;;;;14.27;4.22;;;21.20;87.10;;;;;;5050580;28;20098;-84
2022/05/14 09:37:06;;;;;;;15.15;4.43;;;21.50;87.00;;;;;;5049748;28;20041;-84
2022/05/14 09:39:31;;;;;;;14.05;4.88;;;21.60;86.30;;;;;;5049668;28;20049;-84
2022/05/14 09:42:00;;;;;;;14.70;4.53;;;21.20;84.90;;;;;;5051158;28;20447;-85
2022/05/14 09:44:42;;;;;;;15.70;4.68;;;21.20;86.90;;;;;;5014854;28;20497;-85
2022/05/14 09:47:14;;;;;;;13.82;4.32;;;21.30;88.70;;;;;;5030590;28;20045;-85
2022/05/14 09:49:52;;;;;;;16.77;4.50;;;21.70;89.20;;;;;;5031031;28;20041;-84
2022/05/14 09:52:24;;;;;;;16.27;4.57;;;21.80;88.20;;;;;;5029923;28;20057;-84
2022/05/14 09:54:51;;;;;;;13.43;4.82;;;22.20;86.50;;;;;;5030384;28;20045;-84
2022/05/14 09:57:42;;;;;;;15.13;4.75;;;22.20;85.50;;;;;;5031681;28;20132;-84
2022/05/14 10:00:22;;;;;;;11.80;3.92;;;22.40;83.10;;;;;;5050462;28;20063;-85
2022/05/14 10:03:06;;;;;;;13.48;4.53;;;22.70;82.30;;;;;;5034832;28;20049;-84
2022/05/14 10:05:59;;;;;;;17.00;4.32;;;23.10;82.90;;;;;;5035436;28;20121;-85
2022/05/14 10:08:38;;;;;;;15.98;4.60;;;23.00;78.60;;;;;;5009820;28;20126;-85
2022/05/14 10:11:09;;;;;;;17.98;4.70;;;23.20;82.20;;;;;;5051332;28;20049;-85
2022/05/14 10:14:02;;;;;;;11.68;4.30;;;23.50;82.60;;;;;;5051074;28;20037;-85
2022/05/14 10:16:34;;;;;;;13.40;4.32;;;23.60;80.90;;;;;;5047819;28;20517;-85
2022/05/14 10:19:33;;;;;;;16.98;4.32;;;23.20;78.70;;;;;;5049141;28;20086;-85
2022/05/14 10:22:08;;;;;;;14.00;4.57;;;22.80;77.20;;;;;;5051768;28;20183;-84
2022/05/14 10:27:40;;;;;;;14.77;4.30;;;22.50;76.10;;;;;;5049041;28;20190;-85
2022/05/14 10:30:17;;;;;;;16.85;4.53;;;22.60;77.80;;;;;;5049700;28;20399;-85
2022/05/14 10:32:50;;;;;;;12.20;4.10;;;22.80;77.60;;;;;;5051187;28;20179;-86
2022/05/14 10:35:27;;;;;;;13.80;4.15;;;23.30;80.60;;;;;;5031170;28;20129;-84
2022/05/14 10:37:55;;;;;;;16.40;4.50;;;22.90;75.10;;;;;;5050892;28;20044;-84
2022/05/14 10:40:36;;;;;;;18.08;4.40;;;22.80;77.00;;;;;;5049429;28;20130;-85
2022/05/14 10:43:13;;;;;;;16.98;4.30;;;22.40;77.50;;;;;;5049143;28;20049;-85
2022/05/14 10:45:47;;;;;;;16.67;5.22;;;22.70;79.40;;;;;;5049439;28;20044;-83
2022/05/14 10:48:39;;;;;;;10.93;4.32;;;22.90;78.40;;;;;;5044347;28;20448;-84
2022/05/14 10:51:09;;;;;;;15.25;4.78;;;22.70;78.00;;;;;;5031360;28;20053;-84
2022/05/14 10:53:39;;;;;;;15.25;4.25;;;22.90;78.30;;;;;;5029111;28;20068;-84
2022/05/14 10:56:15;;;;;;;12.63;4.18;;;22.80;78.50;;;;;;5043375;28;20406;-84
2022/05/14 10:58:53;;;;;;;12.38;4.07;;;22.60;77.90;;;;;;5043453;28;20128;-84
2022/05/14 11:01:30;;;;;;;13.15;4.60;;;22.50;77.90;;;;;;5032617;28;20041;-84
2022/05/14 11:04:08;;;;;;;11.38;3.63;;;22.20;79.80;;;;;;5039300;28;20410;-84
2022/05/14 11:06:49;;;;;;;16.45;5.07;;;22.10;80.20;;;;;;5029271;28;20490;-84
2022/05/14 11:09:34;;;;;;;17.35;5.10;;;22.20;78.40;;;;;;5028904;28;20053;-84
2022/05/14 11:12:04;;;;;;;14.95;4.53;;;22.50;79.00;;;;;;5028853;28;20136;-84
2022/05/14 11:14:37;;;;;;;17.00;5.20;;;22.80;78.00;;;;;;5028695;28;20037;-85
2022/05/14 11:17:15;;;;;;;14.82;4.07;;;22.80;78.70;;;;;;5039444;28;20163;-84
2022/05/14 11:19:40;;;;;;;11.23;3.40;;;23.20;79.90;;;;;;5029390;28;20045;-84
2022/05/14 11:22:21;;;;;;;11.00;3.67;;;23.30;75.00;;;;;;5038862;28;20032;-84
2022/05/14 11:24:48;;;;;;;13.85;3.88;;;23.80;75.40;;;;;;5040561;28;20047;-84
2022/05/14 11:27:26;;;;;;;15.57;4.47;;;24.20;73.50;;;;;;5028770;28;20053;-84
2022/05/14 11:30:00;;;;;;;11.43;4.10;;;24.00;70.40;;;;;;5029279;28;20056;-85
2022/05/14 11:32:37;;;;;;;16.35;4.22;;;23.70;70.50;;;;;;5037871;28;20485;-84
2022/05/14 11:35:03;;;;;;;14.32;4.00;;;23.70;71.10;;;;;;5044378;28;20046;-84
2022/05/14 11:37:34;;;;;;;14.27;4.15;;;24.10;71.90;;;;;;5028156;28;20354;-85
2022/05/14 11:40:21;;;;;;;14.43;4.50;;;24.00;72.40;;;;;;5029861;28;20044;-84
2022/05/14 11:42:49;;;;;;;12.80;4.45;;;23.70;70.20;;;;;;5029984;28;20045;-84
2022/05/14 11:45:19;;;;;;;16.27;4.30;;;23.20;71.50;;;;;;5030140;28;20041;-84
2022/05/14 11:47:58;;;;;;;14.57;4.05;;;22.50;70.40;;;;;;5034058;28;20082;-84
2022/05/14 11:50:33;;;;;;;16.23;4.43;;;22.50;72.80;;;;;;5049324;28;20051;-84
2022/05/14 11:53:14;;;;;;;12.93;4.30;;;22.30;73.10;;;;;;5048546;28;20103;-84
2022/05/14 11:55:54;;;;;;;14.38;5.10;;;22.30;73.70;;;;;;5047426;28;20087;-84
2022/05/14 11:58:38;;;;;;;14.98;5.07;;;22.20;74.00;;;;;;5031457;28;20084;-84
2022/05/14 12:01:06;;;;;;;17.83;4.80;;;;;;;;;;5046603;28;20098;-84
2022/05/14 12:03:40;;;;;;;14.55;3.75;;;21.60;73.40;;;;;;5041939;28;20516;-84
2022/05/14 12:06:29;;;;;;;14.32;4.22;;;21.40;73.40;;;;;;5029892;28;20491;-84
2022/05/14 12:09:09;;;;;;;12.40;4.00;;;21.60;73.20;;;;;;5027945;28;20053;-84
2022/05/14 12:11:45;;;;;;;13.18;3.95;;;21.80;75.20;;;;;;5029693;28;20037;-84
2022/05/14 12:14:14;;;;;;;14.63;4.05;;;22.80;75.50;;;;;;5038847;28;20449;-84
2022/05/14 12:16:49;;;;;;;13.60;3.75;;;23.00;75.80;;;;;;5042151;28;20111;-84
2022/05/14 12:19:18;;;;;;;11.45;3.92;;;23.30;73.50;;;;;;5015466;28;20033;-84
2022/05/14 12:21:51;;;;;;;11.43;4.05;;;23.70;74.40;;;;;;5028290;28;20306;-84
2022/05/14 12:24:19;;;;;;;12.88;4.13;;;24.00;71.20;;;;;;5033404;28;20033;-84
2022/05/14 12:26:45;;;;;;;14.70;3.80;;;24.00;69.10;;;;;;5031710;28;20053;-85
2022/05/14 12:29:22;;;;;;;11.43;3.85;;;24.30;69.70;;;;;;5048031;28;20105;-84
2022/05/14 12:35:00;;;;;;;13.18;3.85;;;24.70;66.70;;;;;;5030229;28;20194;-84
2022/05/14 12:37:36;;;;;;;13.18;4.68;;;25.00;68.00;;;;;;5011421;28;20071;-84
2022/05/14 12:40:02;;;;;;;14.23;3.95;;;25.20;65.60;;;;;;5027574;28;20128;-84
2022/05/14 12:42:39;;;;;;;12.15;4.22;;;25.10;65.40;;;;;;5029145;28;20033;-84
2022/05/14 12:45:06;;;;;;;14.73;4.33;;;25.10;65.20;;;;;;5028312;28;20058;-85
2022/05/14 12:47:34;;;;;;;12.82;4.30;;;25.00;63.50;;;;;;5034246;28;20307;-85
2022/05/14 12:50:01;;;;;;;13.88;4.45;;;25.10;64.80;;;;;;5047476;28;20393;-85
2022/05/14 12:52:32;;;;;;;14.55;4.18;;;25.00;64.30;;;;;;5030698;28;20136;-85
2022/05/14 12:55:03;;;;;;;17.40;4.72;;;24.50;62.70;;;;;;5046801;28;20083;-85
2022/05/14 12:57:31;;;;;;;11.65;4.03;;;24.20;63.90;;;;;;5031059;28;20049;-85
2022/05/14 12:59:57;;;;;;;;;;;24.10;66.40;;;;;;5049617;28;20513;-85
2022/05/14 13:02:29;;;;;;;10.30;3.90;;;23.00;64.10;;;;;;5045285;28;19923;-85
2022/05/14 13:05:20;;;;;;;14.35;4.03;;;23.80;64.50;;;;;;5012235;28;20053;-84
2022/05/14 13:07:56;;;;;;;12.15;3.85;;;24.30;64.70;;;;;;5028285;28;20445;-84
2022/05/14 13:10:25;;;;;;;11.52;3.97;;;24.50;64.00;;;;;;5011036;28;20045;-83
2022/05/14 13:12:54;;;;;;;11.57;3.63;;;24.70;63.60;;;;;;5031751;28;20582;-85
2022/05/14 13:15:34;;;;;;;12.70;3.75;;;24.80;62.90;;;;;;5032573;28;20042;-84